Time;durP1;ratioP1;P1;durP2;ratioP2;P2;SDS_P1;SDS_P2;PMS_P1;PMS_P2;Temp;Humidity;BMP_temperature;BMP_pressure;BME280_temperature;BME280_humidity;BME280_pressure;Samples;Min_cycle;Max_cycle;Signal;HPM_P1;HPM_P2
2022/10/18 00:02:07;;;;;;;;;;;21.10;57.70;;;;;;5101183;28;19962;-67
2022/10/18 00:04:33;;;;;;;;;;;21.10;57.70;;;;;;5113214;28;19962;-67
2022/10/18 00:07:02;;;;;;;;;;;21.10;57.70;;;;;;5120346;28;19920;-67
2022/10/18 00:09:29;;;;;;;;;;;21.10;57.70;;;;;;5111285;28;19924;-67
2022/10/18 00:11:56;;;;;;;;;;;21.10;57.70;;;;;;5118381;28;19923;-67
2022/10/18 00:14:25;;;;;;;;;;;21.10;57.70;;;;;;5102441;28;19992;-67
2022/10/18 00:17:00;;;;;;;;;;;21.10;57.70;;;;;;5121047;28;19926;-67
2022/10/18 00:19:28;;;;;;;;;;;21.10;57.70;;;;;;5095790;28;19967;-67
2022/10/18 00:21:58;;;;;;;;;;;21.10;57.70;;;;;;5091558;28;19967;-67
2022/10/18 00:24:25;;;;;;;;;;;21.10;57.70;;;;;;5098023;28;20365;-67
2022/10/18 00:26:51;;;;;;;;;;;21.10;57.70;;;;;;5098312;28;19977;-67
2022/10/18 00:29:18;;;;;;;;;;;21.10;57.70;;;;;;5097147;28;19963;-67
2022/10/18 00:31:47;;;;;;;;;;;21.10;57.70;;;;;;5098141;28;19926;-67
2022/10/18 00:34:14;;;;;;;;;;;21.10;57.70;;;;;;5115509;27;20010;-67
2022/10/18 00:36:43;;;;;;;;;;;21.10;57.70;;;;;;5101456;27;19920;-67
2022/10/18 00:39:12;;;;;;;;;;;21.00;57.60;;;;;;5104585;27;19919;-67
2022/10/18 00:41:38;;;;;;;;;;;21.00;57.60;;;;;;5101408;27;20014;-67
2022/10/18 00:44:06;;;;;;;;;;;21.10;57.60;;;;;;5103730;27;19941;-67
2022/10/18 00:46:38;;;;;;;;;;;21.00;57.60;;;;;;5103785;27;19950;-67
2022/10/18 00:49:14;;;;;;;;;;;21.00;57.70;;;;;;5103012;27;19959;-67
2022/10/18 00:51:43;;;;;;;;;;;21.00;57.60;;;;;;5092013;27;20373;-67
2022/10/18 00:54:13;;;;;;;;;;;21.00;57.60;;;;;;5103814;27;19919;-67
2022/10/18 00:56:39;;;;;;;;;;;21.00;57.50;;;;;;5098005;27;19926;-67
2022/10/18 00:59:06;;;;;;;;;;;21.00;57.50;;;;;;5121551;27;19945;-67
2022/10/18 01:01:35;;;;;;;;;;;21.00;57.50;;;;;;5119798;27;19926;-67
2022/10/18 01:04:02;;;;;;;;;;;21.00;57.50;;;;;;5105441;27;20365;-67
2022/10/18 01:06:29;;;;;;;;;;;21.00;57.50;;;;;;5104936;27;20361;-67
2022/10/18 01:09:02;;;;;;;;;;;21.00;57.50;;;;;;5104239;27;20014;-67
2022/10/18 01:11:44;;;;;;;;;;;21.00;57.50;;;;;;5101233;27;19926;-67
2022/10/18 01:14:15;;;;;;;;;;;21.00;57.50;;;;;;5100653;27;19919;-67
2022/10/18 01:16:49;;;;;;;;;;;21.00;57.50;;;;;;5119907;27;19924;-67
2022/10/18 01:19:21;;;;;;;;;;;21.00;57.50;;;;;;5116265;27;19923;-67
2022/10/18 01:21:48;;;;;;;;;;;21.00;57.50;;;;;;5100013;27;20371;-67
2022/10/18 01:24:24;;;;;;;;;;;20.90;57.40;;;;;;5102637;27;19975;-67
2022/10/18 01:26:56;;;;;;;;;;;21.00;57.50;;;;;;5122108;27;19992;-67
2022/10/18 01:29:30;;;;;;;;;;;20.90;57.40;;;;;;5101207;27;19955;-67
2022/10/18 01:31:59;;;;;;;;;;;20.90;57.30;;;;;;5116837;27;20026;-67
2022/10/18 01:34:26;;;;;;;;;;;20.90;57.30;;;;;;5124274;27;20022;-67
2022/10/18 01:36:53;;;;;;;;;;;21.00;57.40;;;;;;5102003;27;19919;-67
2022/10/18 01:39:23;;;;;;;;;;;20.90;57.30;;;;;;5101902;28;19919;-67
2022/10/18 01:41:53;;;;;;;;;;;20.90;57.30;;;;;;5099377;27;20239;-67
2022/10/18 01:44:21;;;;;;;;;;;20.90;57.30;;;;;;5101952;27;19930;-67
2022/10/18 01:46:47;;;;;;;;;;;21.00;57.50;;;;;;5121384;27;19976;-67
2022/10/18 01:49:15;;;;;;;;;;;20.90;57.30;;;;;;5120274;27;19931;-67
2022/10/18 01:51:45;;;;;;;;;;;20.90;57.40;;;;;;5101006;27;19955;-67
2022/10/18 01:54:12;;;;;;;;;;;21.00;57.40;;;;;;5102923;27;19927;-67
2022/10/18 01:56:42;;;;;;;;;;;20.90;57.40;;;;;;5117516;27;20014;-67
2022/10/18 01:59:13;;;;;;;;;;;20.90;57.30;;;;;;5100092;27;19919;-67
2022/10/18 02:01:41;;;;;;;;;;;20.90;57.40;;;;;;5122294;27;20413;-67
2022/10/18 02:04:10;;;;;;;;;;;20.90;57.30;;;;;;5101369;27;19924;-67
2022/10/18 02:06:40;;;;;;;;;;;20.90;57.30;;;;;;5119167;27;20513;-67
2022/10/18 02:09:07;;;;;;;;;;;20.90;57.30;;;;;;5101536;27;19930;-67
2022/10/18 02:11:34;;;;;;;;;;;20.90;57.30;;;;;;5102200;27;19931;-67
2022/10/18 02:14:04;;;;;;;;;;;20.90;57.30;;;;;;5120803;27;20030;-67
2022/10/18 02:16:32;;;;;;;;;;;20.90;57.30;;;;;;5101996;27;19927;-67
2022/10/18 02:18:58;;;;;;;;;;;20.90;57.30;;;;;;5103990;27;19924;-67
2022/10/18 02:21:25;;;;;;;;;;;20.90;57.30;;;;;;5102600;27;20014;-67
2022/10/18 02:23:56;;;;;;;;;;;20.90;57.30;;;;;;5100335;28;19955;-67
2022/10/18 02:26:23;;;;;;;;;;;20.90;57.20;;;;;;5096912;27;19923;-67
2022/10/18 02:28:49;;;;;;;;;;;20.90;57.20;;;;;;5101352;28;19980;-67
2022/10/18 02:31:18;;;;;;;;;;;20.90;57.20;;;;;;5099097;27;20492;-67
2022/10/18 02:33:46;;;;;;;;;;;20.90;57.20;;;;;;5100836;27;19969;-67
2022/10/18 02:36:13;;;;;;;;;;;20.90;57.20;;;;;;5116799;27;19977;-67
2022/10/18 02:38:40;;;;;;;;;;;20.90;57.20;;;;;;5100838;28;20011;-68
2022/10/18 02:41:08;;;;;;;;;;;20.90;57.20;;;;;;5098839;27;20013;-67
2022/10/18 02:43:37;;;;;;;;;;;20.90;57.10;;;;;;5101560;27;20429;-67
2022/10/18 02:46:04;;;;;;;;;;;20.90;57.10;;;;;;5095945;27;19919;-68
2022/10/18 02:48:30;;;;;;;;;;;20.90;57.10;;;;;;5102282;27;20006;-68
2022/10/18 02:50:57;;;;;;;;;;;20.90;57.10;;;;;;5096279;28;19923;-68
2022/10/18 02:53:25;;;;;;;;;;;20.90;57.10;;;;;;5100143;28;19926;-68
2022/10/18 02:55:52;;;;;;;;;;;20.90;57.00;;;;;;5101238;27;19963;-68
2022/10/18 02:58:20;;;;;;;;;;;20.90;57.10;;;;;;5100709;27;19965;-68
2022/10/18 03:00:49;;;;;;;;;;;20.90;57.00;;;;;;5102296;28;19963;-68
2022/10/18 03:03:15;;;;;;;;;;;20.90;57.00;;;;;;5118423;27;19963;-68
2022/10/18 03:05:42;;;;;;;;;;;20.90;57.00;;;;;;5111393;27;19942;-68
2022/10/18 03:08:09;;;;;;;;;;;20.90;57.00;;;;;;5120983;27;19940;-68
2022/10/18 03:10:36;;;;;;;;;;;20.90;57.00;;;;;;5093536;27;19969;-68
2022/10/18 03:13:02;;;;;;;;;;;20.90;57.00;;;;;;5117392;27;19920;-67
2022/10/18 03:15:30;;;;;;;;;;;20.90;57.00;;;;;;5097684;27;20038;-67
2022/10/18 03:17:57;;;;;;;;;;;20.90;57.00;;;;;;5101195;28;19942;-67
2022/10/18 03:20:23;;;;;;;;;;;20.90;57.00;;;;;;5118076;27;19919;-67
2022/10/18 03:22:50;;;;;;;;;;;20.90;57.00;;;;;;5094689;28;20022;-67
2022/10/18 03:25:17;;;;;;;;;;;20.90;57.00;;;;;;5120254;27;20054;-67
2022/10/18 03:27:44;;;;;;;;;;;20.90;57.00;;;;;;5102826;28;19927;-67
2022/10/18 03:30:12;;;;;;;;;;;20.90;57.00;;;;;;5097528;28;19963;-67
2022/10/18 03:32:40;;;;;;;;;;;20.90;57.00;;;;;;5097615;28;19924;-67
2022/10/18 03:35:08;;;;;;;;;;;20.90;57.00;;;;;;5099864;28;19977;-67
2022/10/18 03:37:34;;;;;;;;;;;20.90;56.90;;;;;;5099955;28;19919;-67
2022/10/18 03:40:01;;;;;;;;;;;20.90;57.00;;;;;;5097981;28;19963;-67
2022/10/18 03:42:28;;;;;;;;;;;20.90;57.00;;;;;;5100130;28;20337;-67
2022/10/18 03:44:54;;;;;;;;;;;20.80;56.80;;;;;;5119735;28;19974;-67
2022/10/18 03:47:21;;;;;;;;;;;20.80;56.80;;;;;;5100265;28;19972;-67
2022/10/18 03:49:49;;;;;;;;;;;20.80;56.80;;;;;;5100443;28;19923;-67
2022/10/18 03:52:16;;;;;;;;;;;20.80;56.90;;;;;;5096654;28;20025;-67
2022/10/18 03:54:43;;;;;;;;;;;20.80;57.20;;;;;;5098141;28;19967;-67
2022/10/18 03:57:09;;;;;;;;;;;20.80;56.80;;;;;;5100084;28;19930;-67
2022/10/18 03:59:36;;;;;;;;;;;20.90;56.90;;;;;;5119807;28;19962;-67
2022/10/18 04:02:03;;;;;;;;;;;20.80;56.80;;;;;;5118427;28;19970;-67
2022/10/18 04:04:29;;;;;;;;;;;20.80;56.80;;;;;;5099558;28;19971;-67
2022/10/18 04:06:57;;;;;;;;;;;20.80;56.80;;;;;;5097542;28;19919;-67
2022/10/18 04:09:24;;;;;;;;;;;20.80;56.80;;;;;;5113647;28;20276;-67
2022/10/18 04:11:51;;;;;;;;;;;20.80;56.80;;;;;;5104437;27;19998;-67
2022/10/18 04:14:20;;;;;;;;;;;20.80;56.80;;;;;;5104389;27;19919;-67
2022/10/18 04:16:47;;;;;;;;;;;20.80;56.80;;;;;;5123386;27;19919;-67
2022/10/18 04:19:14;;;;;;;;;;;20.80;56.80;;;;;;5105549;27;19965;-67
2022/10/18 04:21:41;;;;;;;;;;;20.80;56.80;;;;;;5118432;27;20413;-67
2022/10/18 04:24:09;;;;;;;;;;;20.80;56.80;;;;;;5102207;27;19990;-68
2022/10/18 04:26:36;;;;;;;;;;;20.80;56.80;;;;;;5102175;27;19967;-68
2022/10/18 04:29:02;;;;;;;;;;;20.80;56.80;;;;;;5104361;27;19920;-68
2022/10/18 04:31:29;;;;;;;;;;;20.80;56.70;;;;;;5120784;27;20039;-68
2022/10/18 04:33:56;;;;;;;;;;;20.80;56.70;;;;;;5104503;27;19920;-68
2022/10/18 04:36:23;;;;;;;;;;;20.80;56.70;;;;;;5101052;27;19963;-68
2022/10/18 04:38:49;;;;;;;;;;;20.80;56.70;;;;;;5123329;27;19973;-68
2022/10/18 04:41:17;;;;;;;;;;;20.80;56.70;;;;;;5100191;27;19954;-68
2022/10/18 04:43:44;;;;;;;;;;;20.80;56.70;;;;;;5104165;27;19955;-67
2022/10/18 04:46:11;;;;;;;;;;;20.80;56.70;;;;;;5102480;27;19920;-68
2022/10/18 04:48:37;;;;;;;;;;;20.80;56.70;;;;;;5099884;27;19926;-67
2022/10/18 04:51:04;;;;;;;;;;;20.80;56.60;;;;;;5117702;27;19961;-68
2022/10/18 04:53:31;;;;;;;;;;;20.80;56.60;;;;;;5122075;27;19919;-68
2022/10/18 04:55:58;;;;;;;;;;;20.80;56.60;;;;;;5101561;27;19972;-68
2022/10/18 04:58:26;;;;;;;;;;;20.80;56.60;;;;;;5099834;27;19954;-67
2022/10/18 05:00:53;;;;;;;;;;;20.70;56.50;;;;;;5101166;27;20004;-67
2022/10/18 05:03:19;;;;;;;;;;;20.70;56.50;;;;;;5119534;27;20385;-68
2022/10/18 05:05:46;;;;;;;;;;;20.70;56.40;;;;;;5106381;27;20000;-68
2022/10/18 05:08:13;;;;;;;;;;;20.70;56.40;;;;;;5100877;27;20381;-68
2022/10/18 05:10:39;;;;;;;;;;;20.70;56.40;;;;;;5102003;27;20528;-67
2022/10/18 05:13:06;;;;;;;;;;;20.70;56.40;;;;;;5105631;27;20177;-68
2022/10/18 05:15:34;;;;;;;;;;;20.70;56.40;;;;;;5099690;27;20109;-68
2022/10/18 05:18:01;;;;;;;;;;;20.80;56.50;;;;;;5100777;27;19931;-67
2022/10/18 05:20:27;;;;;;;;;;;20.70;56.40;;;;;;5099653;27;20034;-68
2022/10/18 05:22:54;;;;;;;;;;;20.70;56.40;;;;;;5105044;27;19919;-67
2022/10/18 05:25:21;;;;;;;;;;;20.70;56.40;;;;;;5104039;27;20038;-67
2022/10/18 05:27:47;;;;;;;;;;;20.70;56.40;;;;;;5123224;27;19955;-67
2022/10/18 05:30:14;;;;;;;;;;;20.70;56.40;;;;;;5103001;27;20076;-68
2022/10/18 05:32:42;;;;;;;;;;;20.70;56.40;;;;;;5101302;27;19924;-68
2022/10/18 05:35:09;;;;;;;;;;;20.70;56.40;;;;;;5106283;27;20384;-68
2022/10/18 05:37:36;;;;;;;;;;;20.70;56.30;;;;;;5105514;27;19962;-68
2022/10/18 05:40:02;;;;;;;;;;;20.70;56.30;;;;;;5098352;27;19931;-68
2022/10/18 05:42:29;;;;;;;;;;;20.70;56.30;;;;;;5102282;27;20375;-68
2022/10/18 05:44:58;;;;;;;;;;;20.70;56.30;;;;;;5104570;27;20444;-67
2022/10/18 05:47:25;;;;;;;;;;;20.70;56.30;;;;;;5101944;27;19919;-68
2022/10/18 05:49:53;;;;;;;;;;;20.70;56.30;;;;;;5102351;27;19920;-68
2022/10/18 05:52:20;;;;;;;;;;;20.70;56.20;;;;;;5099608;27;20293;-68
2022/10/18 05:54:47;;;;;;;;;;;20.70;56.20;;;;;;5097475;27;20437;-68
2022/10/18 05:57:13;;;;;;;;;;;20.70;56.20;;;;;;5099511;27;20336;-68
2022/10/18 05:59:40;;;;;;;;;;;20.70;56.20;;;;;;5095423;27;19951;-69
2022/10/18 06:02:08;;;;;;;;;;;20.70;56.20;;;;;;5111251;27;20403;-68
2022/10/18 06:04:35;;;;;;;;;;;20.70;56.20;;;;;;5110996;27;19926;-68
2022/10/18 06:07:03;;;;;;;;;;;20.70;56.10;;;;;;5105976;28;19974;-68
2022/10/18 06:09:29;;;;;;;;;;;20.70;56.10;;;;;;5105221;28;19920;-68
2022/10/18 06:11:56;;;;;;;;;;;20.70;56.10;;;;;;5107544;27;19923;-68
2022/10/18 06:14:23;;;;;;;;;;;20.70;56.10;;;;;;5116847;27;19924;-69
2022/10/18 06:16:50;;;;;;;;;;;20.70;56.10;;;;;;5109373;28;20019;-68
2022/10/18 06:19:17;;;;;;;;;;;20.70;56.10;;;;;;5110652;28;19972;-68
2022/10/18 06:21:43;;;;;;;;;;;20.70;56.10;;;;;;5108530;27;19926;-69
2022/10/18 06:24:11;;;;;;;;;;;20.70;56.10;;;;;;5111049;28;20346;-68
2022/10/18 06:26:38;;;;;;;;;;;20.70;56.00;;;;;;5090960;28;19924;-68
2022/10/18 06:29:05;;;;;;;;;;;20.70;56.00;;;;;;5092375;28;19959;-68
2022/10/18 06:31:32;;;;;;;;;;;20.70;56.00;;;;;;5092319;28;20472;-69
2022/10/18 06:33:58;;;;;;;;;;;20.70;56.00;;;;;;5091554;28;19963;-69
2022/10/18 06:36:25;;;;;;;;;;;20.60;55.90;;;;;;5077915;22;20337;-66
2022/10/18 06:38:52;;;;;;;;;;;20.70;55.90;;;;;;5032106;28;19971;-66
2022/10/18 06:41:20;;;;;;;;;;;20.60;55.80;;;;;;5034758;28;20325;-66
2022/10/18 06:43:48;;;;;;;;;;;20.60;55.80;;;;;;5032654;28;19921;-66
2022/10/18 06:46:14;;;;;;;;;;;20.60;55.80;;;;;;5033554;28;19921;-66
2022/10/18 06:48:41;;;;;;;;;;;20.60;55.80;;;;;;5031909;28;19927;-66
2022/10/18 06:51:08;;;;;;;;;;;20.60;55.80;;;;;;5035273;28;20371;-66
2022/10/18 06:53:35;;;;;;;;;;;20.70;55.90;;;;;;5029742;28;20012;-67
2022/10/18 06:56:02;;;;;;;;;;;20.60;55.80;;;;;;5031886;28;19980;-66
2022/10/18 06:58:30;;;;;;;;;;;20.70;55.80;;;;;;5034167;28;20019;-66
2022/10/18 07:00:57;;;;;;;;;;;20.70;55.90;;;;;;5031062;28;19971;-67
2022/10/18 07:03:25;;;;;;;;;;;20.60;55.80;;;;;;5033621;28;20015;-71
2022/10/18 07:05:51;;;;;;;;;;;20.70;55.90;;;;;;5030128;28;19921;-73
2022/10/18 07:08:18;;;;;;;;;;;20.60;55.80;;;;;;5032879;28;19960;-72
2022/10/18 07:10:50;;;;;;;;;;;20.60;55.80;;;;;;5037397;28;19952;-73
2022/10/18 07:13:17;;;;;;;;;;;20.70;55.90;;;;;;5033666;28;19921;-72
2022/10/18 07:15:45;;;;;;;;;;;20.60;55.80;;;;;;5029231;28;19922;-72
2022/10/18 07:18:12;;;;;;;;;;;20.70;55.80;;;;;;5032660;28;19921;-72
2022/10/18 07:20:38;;;;;;;;;;;20.60;55.80;;;;;;5031438;28;20367;-73
2022/10/18 07:23:07;;;;;;;;;;;20.70;55.80;;;;;;5036109;28;19925;-72
2022/10/18 07:25:33;;;;;;;;;;;20.60;55.70;;;;;;5036298;28;19932;-76
2022/10/18 07:28:00;;;;;;;;;;;20.60;55.70;;;;;;5037958;28;19943;-76
2022/10/18 07:30:27;;;;;;;;;;;20.70;55.70;;;;;;5033349;28;19928;-75
2022/10/18 07:32:55;;;;;;;;;;;20.60;55.60;;;;;;5033338;28;20393;-74
2022/10/18 07:35:22;;;;;;;;;;;20.60;55.60;;;;;;5034200;28;20004;-73
2022/10/18 07:37:48;;;;;;;;;;;20.60;55.60;;;;;;5031732;28;19925;-74
2022/10/18 07:40:15;;;;;;;;;;;20.60;55.60;;;;;;5036932;28;19921;-76
2022/10/18 07:42:42;;;;;;;;;;;20.60;55.60;;;;;;5034230;28;19921;-75
2022/10/18 07:45:11;;;;;;;;;;;20.70;55.60;;;;;;5038821;28;19925;-75
2022/10/18 07:47:37;;;;;;;;;;;20.70;55.60;;;;;;5038631;28;19951;-72
2022/10/18 07:50:06;;;;;;;;;;;20.70;55.60;;;;;;5037657;28;19921;-74
2022/10/18 07:52:33;;;;;;;;;;;20.70;55.60;;;;;;5036761;28;19921;-74
2022/10/18 07:55:00;;;;;;;;;;;20.70;55.60;;;;;;5041374;28;19967;-74
2022/10/18 07:57:26;;;;;;;;;;;20.70;55.60;;;;;;5037728;28;20032;-75
2022/10/18 07:59:55;;;;;;;;;;;20.70;55.60;;;;;;5039760;28;19921;-75
2022/10/18 08:02:22;;;;;;;;;;;20.70;55.60;;;;;;5039872;28;19976;-75
2022/10/18 08:04:49;;;;;;;;;;;20.70;55.50;;;;;;5037591;28;19948;-75
2022/10/18 08:07:17;;;;;;;;;;;20.70;55.50;;;;;;5038575;28;19921;-76
2022/10/18 08:09:44;;;;;;;;;;;20.70;55.50;;;;;;5037919;28;19935;-73
2022/10/18 08:12:10;;;;;;;;;;;20.70;55.40;;;;;;5044429;28;19921;-76
2022/10/18 08:14:37;;;;;;;;;;;20.70;55.40;;;;;;5037834;28;19975;-70
2022/10/18 08:17:04;;;;;;;;;;;20.70;55.40;;;;;;5037185;28;19979;-75
2022/10/18 08:19:30;;;;;;;;;;;20.70;55.40;;;;;;5035478;28;20348;-72
2022/10/18 08:21:57;;;;;;;;;;;20.70;55.40;;;;;;5034320;28;20019;-72
2022/10/18 08:24:28;;;;;;;;;;;20.70;55.40;;;;;;5035594;28;20418;-72
2022/10/18 08:26:54;;;;;;;;;;;20.70;55.40;;;;;;5037227;28;20339;-72
2022/10/18 08:29:21;;;;;;;;;;;20.70;55.30;;;;;;5036508;28;19921;-72
2022/10/18 08:31:49;;;;;;;;;;;20.70;55.30;;;;;;5038234;28;19921;-72
2022/10/18 08:34:17;;;;;;;;;;;20.70;55.30;;;;;;5034509;28;19963;-72
2022/10/18 08:36:44;;;;;;;;;;;20.70;55.30;;;;;;5035756;28;19948;-72
2022/10/18 08:39:11;;;;;;;;;;;20.70;55.30;;;;;;5035919;28;19921;-75
2022/10/18 08:41:43;;;;;;;;;;;20.70;55.30;;;;;;5035233;28;19921;-69
2022/10/18 08:44:11;;;;;;;;;;;20.70;55.30;;;;;;5038127;28;19964;-70
2022/10/18 08:46:39;;;;;;;;;;;20.60;55.20;;;;;;5035060;28;20338;-72
2022/10/18 08:49:05;;;;;;;;;;;20.70;55.30;;;;;;5038586;28;19925;-74
2022/10/18 08:51:33;;;;;;;;;;;20.70;55.30;;;;;;5035205;28;19972;-72
2022/10/18 08:54:04;;;;;;;;;;;20.70;55.30;;;;;;5037890;28;19925;-71
2022/10/18 08:56:30;;;;;;;;;;;20.70;55.30;;;;;;5036350;28;19928;-71
2022/10/18 08:58:58;;;;;;;;;;;20.70;55.30;;;;;;5037857;28;19929;-71
2022/10/18 09:01:27;;;;;;;;;;;20.70;55.30;;;;;;5043013;28;19921;-71
2022/10/18 09:04:15;;;;;;;;;;;20.80;55.40;;;;;;5035339;28;19988;-71
2022/10/18 09:06:45;;;;;;;;;;;20.70;55.30;;;;;;5038113;28;20379;-72
2022/10/18 09:09:17;;;;;;;;;;;20.70;55.30;;;;;;5037653;28;19975;-73
2022/10/18 09:11:47;;;;;;;;;;;20.70;55.30;;;;;;5038810;28;19975;-73
2022/10/18 09:14:33;;;;;;;;;;;20.70;55.30;;;;;;5038127;28;19952;-75
2022/10/18 09:17:02;;;;;;;;;;;20.70;55.30;;;;;;5043187;28;20008;-74
2022/10/18 09:19:30;;;;;;;;;;;20.80;55.40;;;;;;5042169;28;19956;-75
2022/10/18 09:21:58;;;;;;;;;;;20.80;55.40;;;;;;5038077;28;20024;-71
2022/10/18 09:24:26;;;;;;;;;;;20.80;55.30;;;;;;5037055;28;19952;-70
2022/10/18 09:26:55;;;;;;;;;;;20.80;55.30;;;;;;5034928;28;19921;-72
2022/10/18 09:29:27;;;;;;;;;;;20.80;55.30;;;;;;5020242;28;20008;-73
2022/10/18 09:31:58;;;;;;;;;;;20.80;55.30;;;;;;5021314;28;20375;-70
2022/10/18 09:34:25;;;;;;;;;;;20.80;55.30;;;;;;5037561;28;19964;-72
2022/10/18 09:36:52;;;;;;;;;;;20.80;55.30;;;;;;5036402;28;19967;-73
2022/10/18 09:39:19;;;;;;;;;;;20.80;55.30;;;;;;5040890;28;19925;-73
2022/10/18 09:41:47;;;;;;;;;;;20.80;55.30;;;;;;5036043;28;19980;-72
2022/10/18 09:44:15;;;;;;;;;;;20.80;55.20;;;;;;5038000;28;20343;-72
2022/10/18 09:46:44;;;;;;;;;;;20.80;55.20;;;;;;5035928;28;20027;-73
2022/10/18 09:49:13;;;;;;;;;;;20.80;55.20;;;;;;5036990;28;20381;-71
2022/10/18 09:51:40;;;;;;;;;;;20.80;55.20;;;;;;5036181;28;19984;-74
2022/10/18 09:54:11;;;;;;;;;;;20.80;55.20;;;;;;5038293;28;19928;-73
2022/10/18 09:56:39;;;;;;;;;;;20.80;55.20;;;;;;5034717;28;20347;-72
2022/10/18 09:59:05;;;;;;;;;;;20.80;55.20;;;;;;5035289;28;19928;-74
2022/10/18 10:01:32;;;;;;;;;;;20.80;55.10;;;;;;5037679;28;20307;-73
2022/10/18 10:03:59;;;;;;;;;;;20.80;55.10;;;;;;5036063;28;19921;-72
2022/10/18 10:06:28;;;;;;;;;;;20.80;55.10;;;;;;5034978;28;19921;-71
2022/10/18 10:08:55;;;;;;;;;;;20.80;55.10;;;;;;5036554;28;19960;-73
2022/10/18 10:11:32;;;;;;;;;;;20.80;55.10;;;;;;5033385;28;20275;-72
2022/10/18 10:14:02;;;;;;;;;;;20.90;55.10;;;;;;5035014;28;19922;-71
2022/10/18 10:16:29;;;;;;;;;;;20.90;55.10;;;;;;5033106;28;19921;-71
2022/10/18 10:18:57;;;;;;;;;;;20.90;55.10;;;;;;5035178;28;20406;-72
2022/10/18 10:21:24;;;;;;;;;;;20.90;55.10;;;;;;5033557;28;19921;-73
2022/10/18 10:23:53;;;;;;;;;;;20.90;55.10;;;;;;5035068;28;20331;-72
2022/10/18 10:26:23;;;;;;;;;;;20.90;55.10;;;;;;5046547;28;19992;-72
2022/10/18 10:28:49;;;;;;;;;;;20.90;55.00;;;;;;5033350;28;19971;-74
2022/10/18 10:31:17;;;;;;;;;;;20.90;55.00;;;;;;5038868;28;19944;-72
2022/10/18 10:33:45;;;;;;;;;;;20.90;55.00;;;;;;5036573;28;19929;-72
2022/10/18 10:36:15;;;;;;;;;;;20.90;54.90;;;;;;5037045;28;19928;-72
2022/10/18 10:38:42;;;;;;;;;;;20.90;54.90;;;;;;5033259;28;19945;-65
2022/10/18 10:41:16;;;;;;;;;;;20.90;54.90;;;;;;5035451;28;19967;-65
2022/10/18 10:43:44;;;;;;;;;;;20.90;54.80;;;;;;5033099;28;19921;-65
2022/10/18 10:46:11;;;;;;;;;;;20.90;54.50;;;;;;5034912;28;19971;-65
2022/10/18 10:48:48;;;;;;;;;;;20.90;54.30;;;;;;5032027;28;19971;-65
2022/10/18 10:51:16;;;;;;;;;;;20.90;54.30;;;;;;5031250;28;20251;-65
2022/10/18 10:53:43;;;;;;;;;;;20.80;54.10;;;;;;5033985;28;20386;-65
2022/10/18 10:56:17;;;;;;;;;;;20.80;53.90;;;;;;5034061;28;19921;-65
2022/10/18 10:58:43;;;;;;;;;;;20.80;53.90;;;;;;5032701;28;20401;-65
2022/10/18 11:01:18;;;;;;;;;;;20.80;53.90;;;;;;5027332;28;20039;-66
2022/10/18 11:03:45;;;;;;;;;;;20.70;53.70;;;;;;5033161;28;19921;-65
2022/10/18 11:06:15;;;;;;;;;;;20.70;53.70;;;;;;5032884;28;19925;-65
2022/10/18 11:08:42;;;;;;;;;;;20.70;53.80;;;;;;5030996;28;20015;-66
2022/10/18 11:11:13;;;;;;;;;;;20.70;53.80;;;;;;5031838;28;19960;-65
2022/10/18 11:13:46;;;;;;;;;;;20.60;53.80;;;;;;5041083;28;20433;-65
2022/10/18 11:16:14;;;;;;;;;;;20.70;53.80;;;;;;5034894;28;19921;-65
2022/10/18 11:18:42;;;;;;;;;;;20.70;53.90;;;;;;5033054;28;19975;-65
2022/10/18 11:21:10;;;;;;;;;;;20.70;53.90;;;;;;5032008;28;19975;-66
2022/10/18 11:23:37;;;;;;;;;;;20.70;53.80;;;;;;5031648;28;19921;-70
2022/10/18 11:26:19;;;;;;;;;;;20.70;53.60;;;;;;5034039;28;20364;-71
2022/10/18 11:28:52;;;;;;;;;;;20.70;53.50;;;;;;5032655;28;19928;-71
2022/10/18 11:31:22;;;;;;;;;;;20.60;53.30;;;;;;5005554;28;21950;-71
2022/10/18 11:33:53;;;;;;;;;;;20.60;53.20;;;;;;5028850;28;19920;-70
2022/10/18 11:36:24;;;;;;;;;;;20.60;53.10;;;;;;5033135;28;19921;-70
2022/10/18 11:38:52;;;;;;;;;;;20.60;53.10;;;;;;5038412;28;19922;-70
2022/10/18 11:41:22;;;;;;;;;;;20.60;53.20;;;;;;5015416;28;19989;-71
2022/10/18 11:43:52;;;;;;;;;;;20.60;53.30;;;;;;5015721;28;19921;-71
2022/10/18 11:46:22;;;;;;;;;;;20.60;53.20;;;;;;5024251;28;19960;-71
2022/10/18 11:48:58;;;;;;;;;;;20.60;53.00;;;;;;5033206;28;19921;-70
2022/10/18 11:51:27;;;;;;;;;;;20.60;52.90;;;;;;5032902;28;19944;-71
2022/10/18 11:53:58;;;;;;;;;;;20.60;52.90;;;;;;5031940;28;19921;-71
2022/10/18 11:56:25;;;;;;;;;;;20.60;53.00;;;;;;5031378;28;19928;-71
2022/10/18 11:58:59;;;;;;;;;;;20.60;53.10;;;;;;5050404;28;19925;-71
2022/10/18 12:01:27;;;;;;;;;;;20.60;53.20;;;;;;5016337;28;20020;-72
2022/10/18 12:03:56;;;;;;;;;;;20.60;53.20;;;;;;5032189;28;19921;-70
2022/10/18 12:06:24;;;;;;;;;;;20.70;53.30;;;;;;5034028;28;19921;-72
2022/10/18 12:08:53;;;;;;;;;;;20.60;53.20;;;;;;5035278;28;19952;-72
2022/10/18 12:11:20;;;;;;;;;;;20.70;53.20;;;;;;5035323;28;19921;-71
2022/10/18 12:13:48;;;;;;;;;;;20.70;53.10;;;;;;5036633;28;20401;-71
2022/10/18 12:16:16;;;;;;;;;;;20.70;52.90;;;;;;5035413;28;19928;-65
2022/10/18 12:18:47;;;;;;;;;;;20.70;52.70;;;;;;5033671;28;19944;-70
2022/10/18 12:21:14;;;;;;;;;;;20.70;52.20;;;;;;5013549;28;19954;-70
2022/10/18 12:23:42;;;;;;;;;;;20.60;51.90;;;;;;5020660;28;19921;-69
2022/10/18 12:26:09;;;;;;;;;;;20.60;51.70;;;;;;5036123;28;19932;-70
2022/10/18 12:28:38;;;;;;;;;;;20.60;51.70;;;;;;5035678;28;19967;-71
2022/10/18 12:31:06;;;;;;;;;;;20.60;51.60;;;;;;5033038;28;20428;-70
2022/10/18 12:33:35;;;;;;;;;;;20.60;51.60;;;;;;5038804;28;20331;-71
2022/10/18 12:36:05;;;;;;;;;;;20.50;51.40;;;;;;5039578;28;19925;-71
2022/10/18 12:38:33;;;;;;;;;;;20.60;51.60;;;;;;5038541;28;19925;-71
2022/10/18 12:40:59;;;;;;;;;;;20.50;51.50;;;;;;5037557;28;19921;-71
2022/10/18 12:43:31;;;;;;;;;;;20.50;51.30;;;;;;5038825;28;19921;-71
2022/10/18 12:45:58;;;;;;;;;;;20.50;51.20;;;;;;5038401;28;19971;-70
2022/10/18 12:48:29;;;;;;;;;;;20.50;51.20;;;;;;5036005;28;19928;-71
2022/10/18 12:50:59;;;;;;;;;;;20.50;51.40;;;;;;5038706;28;19921;-71
2022/10/18 12:53:26;;;;;;;;;;;20.50;51.60;;;;;;5035039;28;19924;-70
2022/10/18 12:55:54;;;;;;;;;;;20.50;51.80;;;;;;5037103;28;20398;-71
2022/10/18 12:58:22;;;;;;;;;;;20.50;51.90;;;;;;5018434;28;19921;-71
2022/10/18 13:00:56;;;;;;;;;;;20.60;52.00;;;;;;4999963;28;20019;-71
2022/10/18 13:03:30;;;;;;;;;;;20.60;52.10;;;;;;5023892;28;19925;-72
2022/10/18 13:05:59;;;;;;;;;;;20.60;52.10;;;;;;5036638;28;19921;-70
2022/10/18 13:08:37;;;;;;;;;;;20.60;52.10;;;;;;5036795;28;19922;-72
2022/10/18 13:11:22;;;;;;;;;;;20.60;52.20;;;;;;5036349;28;19921;-70
2022/10/18 13:13:52;;;;;;;;;;;20.70;52.30;;;;;;5037164;28;20252;-70
2022/10/18 13:16:30;;;;;;;;;;;20.70;52.30;;;;;;5034651;28;19921;-73
2022/10/18 13:18:58;;;;;;;;;;;20.80;52.40;;;;;;5036955;28;19948;-71
2022/10/18 13:21:32;;;;;;;;;;;20.70;52.30;;;;;;5036114;28;19960;-69
2022/10/18 13:24:09;;;;;;;;;;;20.70;52.20;;;;;;5038570;28;19927;-70
2022/10/18 13:26:38;;;;;;;;;;;20.70;52.30;;;;;;5037766;28;19975;-70
2022/10/18 13:29:05;;;;;;;;;;;20.80;52.30;;;;;;5035691;28;20319;-71
2022/10/18 13:31:35;;;;;;;;;;;20.80;52.30;;;;;;5038431;28;19932;-71
2022/10/18 13:34:16;;;;;;;;;;;20.80;52.60;;;;;;5030499;28;19928;-71
2022/10/18 13:36:44;;;;;;;;;;;20.80;51.70;;;;;;5035513;28;20381;-71
2022/10/18 13:39:18;;;;;;;;;;;20.80;51.20;;;;;;5036124;28;19948;-70
2022/10/18 13:42:03;;;;;;;;;;;20.70;51.10;;;;;;5036151;28;19921;-70
2022/10/18 13:44:32;;;;;;;;;;;20.70;50.90;;;;;;5036007;28;19964;-71
2022/10/18 13:47:08;;;;;;;;;;;20.70;51.10;;;;;;5027350;28;19948;-71
2022/10/18 13:49:36;;;;;;;;;;;20.70;51.20;;;;;;5035282;28;19921;-71
2022/10/18 13:52:06;;;;;;;;;;;20.70;51.40;;;;;;5038318;28;19984;-71
2022/10/18 13:54:47;;;;;;;;;;;20.70;51.60;;;;;;5035763;28;19925;-71
2022/10/18 13:57:17;;;;;;;;;;;20.70;51.40;;;;;;5033600;28;19986;-70
2022/10/18 13:59:49;;;;;;;;;;;20.70;51.50;;;;;;5031429;28;20024;-70
2022/10/18 14:02:21;;;;;;;;;;;20.70;51.50;;;;;;5031720;28;19965;-69
2022/10/18 14:04:55;;;;;;;;;;;20.70;51.60;;;;;;5032512;28;19928;-71
2022/10/18 14:07:23;;;;;;;;;;;20.70;51.60;;;;;;5033936;28;19921;-71
2022/10/18 14:09:50;;;;;;;;;;;20.70;51.50;;;;;;5036219;28;19921;-71
2022/10/18 14:12:23;;;;;;;;;;;20.70;51.50;;;;;;5035377;28;19921;-71
2022/10/18 14:14:51;;;;;;;;;;;20.70;51.60;;;;;;5035697;28;20020;-70
2022/10/18 14:17:21;;;;;;;;;;;20.70;51.60;;;;;;5034351;28;19921;-71
2022/10/18 14:19:49;;;;;;;;;;;20.80;51.80;;;;;;5033174;28;19921;-71
2022/10/18 14:22:16;;;;;;;;;;;20.80;51.80;;;;;;5017501;28;20012;-71
2022/10/18 14:24:45;;;;;;;;;;;20.80;51.90;;;;;;5019440;28;20011;-69